sensor_id;sensor_type;location;lat;lon;timestamp;P1;durP1;ratioP1;P2;durP2;ratioP2
66739;SDS011;53653;52.188;8.602;2023-04-24T00:01:31;4.70;;;1.30;;
66739;SDS011;53653;52.188;8.602;2023-04-24T00:04:00;4.53;;;1.45;;
66739;SDS011;53653;52.188;8.602;2023-04-24T00:06:26;4.65;;;1.35;;
66739;SDS011;53653;52.188;8.602;2023-04-24T00:09:01;4.30;;;1.38;;
66739;SDS011;53653;52.188;8.602;2023-04-24T00:11:27;4.13;;;1.30;;
66739;SDS011;53653;52.188;8.602;2023-04-24T00:13:53;4.93;;;1.30;;
66739;SDS011;53653;52.188;8.602;2023-04-24T00:16:19;3.65;;;1.05;;
66739;SDS011;53653;52.188;8.602;2023-04-24T00:18:45;3.88;;;1.00;;
66739;SDS011;53653;52.188;8.602;2023-04-24T00:21:13;3.03;;;0.83;;
66739;SDS011;53653;52.188;8.602;2023-04-24T00:23:43;4.03;;;1.00;;
66739;SDS011;53653;52.188;8.602;2023-04-24T00:26:09;2.95;;;0.90;;
66739;SDS011;53653;52.188;8.602;2023-04-24T00:28:34;3.55;;;0.90;;
66739;SDS011;53653;52.188;8.602;2023-04-24T00:31:02;2.60;;;0.70;;
66739;SDS011;53653;52.188;8.602;2023-04-24T00:33:28;3.83;;;0.90;;
66739;SDS011;53653;52.188;8.602;2023-04-24T00:35:54;3.20;;;0.80;;
66739;SDS011;53653;52.188;8.602;2023-04-24T00:38:20;2.63;;;0.90;;
66739;SDS011;53653;52.188;8.602;2023-04-24T00:40:47;3.22;;;0.80;;
66739;SDS011;53653;52.188;8.602;2023-04-24T00:43:13;2.38;;;0.63;;
66739;SDS011;53653;52.188;8.602;2023-04-24T00:45:39;3.60;;;0.77;;
66739;SDS011;53653;52.188;8.602;2023-04-24T00:48:05;2.85;;;0.80;;
66739;SDS011;53653;52.188;8.602;2023-04-24T00:50:32;2.42;;;0.70;;
66739;SDS011;53653;52.188;8.602;2023-04-24T00:52:57;2.53;;;0.60;;
66739;SDS011;53653;52.188;8.602;2023-04-24T00:55:23;3.07;;;0.90;;
66739;SDS011;53653;52.188;8.602;2023-04-24T00:57:50;2.67;;;0.70;;
66739;SDS011;53653;52.188;8.602;2023-04-24T01:00:16;2.65;;;0.80;;
66739;SDS011;53653;52.188;8.602;2023-04-24T01:02:43;3.03;;;0.82;;
66739;SDS011;53653;52.188;8.602;2023-04-24T01:05:10;3.20;;;0.80;;
66739;SDS011;53653;52.188;8.602;2023-04-24T01:07:43;3.23;;;0.87;;
66739;SDS011;53653;52.188;8.602;2023-04-24T01:10:13;3.60;;;0.70;;
66739;SDS011;53653;52.188;8.602;2023-04-24T01:12:39;2.70;;;0.80;;
66739;SDS011;53653;52.188;8.602;2023-04-24T01:15:05;3.67;;;1.00;;
66739;SDS011;53653;52.188;8.602;2023-04-24T01:17:31;3.65;;;0.82;;
66739;SDS011;53653;52.188;8.602;2023-04-24T01:19:58;3.08;;;0.93;;
66739;SDS011;53653;52.188;8.602;2023-04-24T01:22:25;3.33;;;0.90;;
66739;SDS011;53653;52.188;8.602;2023-04-24T01:24:51;3.80;;;0.97;;
66739;SDS011;53653;52.188;8.602;2023-04-24T01:27:17;3.25;;;0.90;;
66739;SDS011;53653;52.188;8.602;2023-04-24T01:29:44;3.50;;;1.17;;
66739;SDS011;53653;52.188;8.602;2023-04-24T01:32:09;4.17;;;1.10;;
66739;SDS011;53653;52.188;8.602;2023-04-24T01:34:35;4.03;;;0.95;;
66739;SDS011;53653;52.188;8.602;2023-04-24T01:37:02;2.85;;;0.77;;
66739;SDS011;53653;52.188;8.602;2023-04-24T01:39:28;5.28;;;1.13;;
66739;SDS011;53653;52.188;8.602;2023-04-24T01:41:54;5.37;;;1.00;;
66739;SDS011;53653;52.188;8.602;2023-04-24T01:44:21;3.53;;;0.90;;
66739;SDS011;53653;52.188;8.602;2023-04-24T01:46:46;4.40;;;1.20;;
66739;SDS011;53653;52.188;8.602;2023-04-24T01:49:12;3.70;;;0.90;;
66739;SDS011;53653;52.188;8.602;2023-04-24T01:51:38;3.37;;;0.90;;
66739;SDS011;53653;52.188;8.602;2023-04-24T01:54:03;4.43;;;0.97;;
66739;SDS011;53653;52.188;8.602;2023-04-24T01:56:30;4.15;;;1.10;;
66739;SDS011;53653;52.188;8.602;2023-04-24T01:58:58;3.80;;;1.10;;
66739;SDS011;53653;52.188;8.602;2023-04-24T02:01:24;4.17;;;1.00;;
66739;SDS011;53653;52.188;8.602;2023-04-24T02:03:51;3.63;;;1.02;;
66739;SDS011;53653;52.188;8.602;2023-04-24T02:06:17;7.93;;;1.20;;
66739;SDS011;53653;52.188;8.602;2023-04-24T02:08:42;4.60;;;1.40;;
66739;SDS011;53653;52.188;8.602;2023-04-24T02:11:10;4.80;;;1.33;;
66739;SDS011;53653;52.188;8.602;2023-04-24T02:13:36;5.40;;;1.80;;
66739;SDS011;53653;52.188;8.602;2023-04-24T02:16:01;4.60;;;1.50;;
66739;SDS011;53653;52.188;8.602;2023-04-24T02:18:28;4.47;;;1.48;;
66739;SDS011;53653;52.188;8.602;2023-04-24T02:20:56;4.35;;;1.35;;
66739;SDS011;53653;52.188;8.602;2023-04-24T02:23:21;4.20;;;1.60;;
66739;SDS011;53653;52.188;8.602;2023-04-24T02:25:47;6.40;;;1.60;;
66739;SDS011;53653;52.188;8.602;2023-04-24T02:28:12;5.63;;;1.10;;
66739;SDS011;53653;52.188;8.602;2023-04-24T02:30:38;4.60;;;1.70;;
66739;SDS011;53653;52.188;8.602;2023-04-24T02:33:03;5.10;;;1.50;;
66739;SDS011;53653;52.188;8.602;2023-04-24T02:35:29;4.75;;;1.48;;
66739;SDS011;53653;52.188;8.602;2023-04-24T02:37:55;4.50;;;1.60;;
66739;SDS011;53653;52.188;8.602;2023-04-24T02:40:20;4.63;;;1.60;;
66739;SDS011;53653;52.188;8.602;2023-04-24T02:42:46;6.67;;;1.67;;
66739;SDS011;53653;52.188;8.602;2023-04-24T02:45:11;6.53;;;1.93;;
66739;SDS011;53653;52.188;8.602;2023-04-24T02:47:37;6.75;;;1.50;;
66739;SDS011;53653;52.188;8.602;2023-04-24T02:50:03;6.30;;;1.70;;
66739;SDS011;53653;52.188;8.602;2023-04-24T02:52:29;4.90;;;1.75;;
66739;SDS011;53653;52.188;8.602;2023-04-24T02:54:54;8.17;;;2.23;;
66739;SDS011;53653;52.188;8.602;2023-04-24T02:57:20;4.90;;;1.80;;
66739;SDS011;53653;52.188;8.602;2023-04-24T02:59:45;5.03;;;1.80;;
66739;SDS011;53653;52.188;8.602;2023-04-24T03:02:11;5.75;;;2.13;;
66739;SDS011;53653;52.188;8.602;2023-04-24T03:04:36;5.27;;;1.80;;
66739;SDS011;53653;52.188;8.602;2023-04-24T03:07:02;6.07;;;2.10;;
66739;SDS011;53653;52.188;8.602;2023-04-24T03:09:27;6.47;;;2.10;;
66739;SDS011;53653;52.188;8.602;2023-04-24T03:11:53;5.80;;;2.17;;
66739;SDS011;53653;52.188;8.602;2023-04-24T03:14:18;7.53;;;2.13;;
66739;SDS011;53653;52.188;8.602;2023-04-24T03:16:44;5.20;;;2.20;;
66739;SDS011;53653;52.188;8.602;2023-04-24T03:19:09;6.15;;;2.10;;
66739;SDS011;53653;52.188;8.602;2023-04-24T03:21:43;5.05;;;1.80;;
66739;SDS011;53653;52.188;8.602;2023-04-24T03:24:09;6.53;;;2.03;;
66739;SDS011;53653;52.188;8.602;2023-04-24T03:26:35;7.07;;;1.60;;
66739;SDS011;53653;52.188;8.602;2023-04-24T03:29:14;6.65;;;1.98;;
66739;SDS011;53653;52.188;8.602;2023-04-24T03:31:40;5.13;;;1.75;;
66739;SDS011;53653;52.188;8.602;2023-04-24T03:34:06;7.30;;;1.80;;
66739;SDS011;53653;52.188;8.602;2023-04-24T03:36:33;5.05;;;1.90;;
66739;SDS011;53653;52.188;8.602;2023-04-24T03:38:59;4.90;;;1.67;;
66739;SDS011;53653;52.188;8.602;2023-04-24T03:41:31;6.65;;;1.50;;
66739;SDS011;53653;52.188;8.602;2023-04-24T03:44:08;4.72;;;1.52;;
66739;SDS011;53653;52.188;8.602;2023-04-24T03:46:34;7.85;;;1.70;;
66739;SDS011;53653;52.188;8.602;2023-04-24T03:49:01;5.13;;;1.40;;
66739;SDS011;53653;52.188;8.602;2023-04-24T03:51:30;5.82;;;1.90;;
66739;SDS011;53653;52.188;8.602;2023-04-24T03:54:04;6.35;;;2.05;;
66739;SDS011;53653;52.188;8.602;2023-04-24T03:56:32;5.82;;;1.77;;
66739;SDS011;53653;52.188;8.602;2023-04-24T03:58:58;6.07;;;1.80;;
66739;SDS011;53653;52.188;8.602;2023-04-24T04:01:24;5.97;;;1.90;;
66739;SDS011;53653;52.188;8.602;2023-04-24T04:03:59;6.03;;;2.00;;
66739;SDS011;53653;52.188;8.602;2023-04-24T04:06:26;5.97;;;1.90;;
66739;SDS011;53653;52.188;8.602;2023-04-24T04:08:53;5.65;;;2.25;;
66739;SDS011;53653;52.188;8.602;2023-04-24T04:11:18;5.93;;;1.80;;
66739;SDS011;53653;52.188;8.602;2023-04-24T04:13:45;5.72;;;2.00;;
66739;SDS011;53653;52.188;8.602;2023-04-24T04:16:13;6.53;;;2.40;;
66739;SDS011;53653;52.188;8.602;2023-04-24T04:18:39;5.55;;;2.00;;
66739;SDS011;53653;52.188;8.602;2023-04-24T04:21:06;6.55;;;1.90;;
66739;SDS011;53653;52.188;8.602;2023-04-24T04:23:31;5.33;;;1.80;;
66739;SDS011;53653;52.188;8.602;2023-04-24T04:26:16;7.50;;;2.50;;
66739;SDS011;53653;52.188;8.602;2023-04-24T04:29:04;6.33;;;1.97;;
66739;SDS011;53653;52.188;8.602;2023-04-24T04:31:31;6.80;;;1.85;;
66739;SDS011;53653;52.188;8.602;2023-04-24T04:34:00;6.40;;;2.10;;
66739;SDS011;53653;52.188;8.602;2023-04-24T04:36:27;9.73;;;2.15;;
66739;SDS011;53653;52.188;8.602;2023-04-24T04:39:00;6.22;;;2.30;;
66739;SDS011;53653;52.188;8.602;2023-04-24T04:42:04;6.23;;;2.20;;
66739;SDS011;53653;52.188;8.602;2023-04-24T04:44:36;5.93;;;2.45;;
66739;SDS011;53653;52.188;8.602;2023-04-24T04:47:02;5.93;;;2.20;;
66739;SDS011;53653;52.188;8.602;2023-04-24T04:49:32;5.80;;;2.33;;
66739;SDS011;53653;52.188;8.602;2023-04-24T04:51:58;6.07;;;2.40;;
66739;SDS011;53653;52.188;8.602;2023-04-24T04:54:25;7.37;;;2.60;;
66739;SDS011;53653;52.188;8.602;2023-04-24T04:56:51;7.20;;;2.70;;
66739;SDS011;53653;52.188;8.602;2023-04-24T04:59:17;9.77;;;2.97;;
66739;SDS011;53653;52.188;8.602;2023-04-24T05:01:42;8.67;;;3.97;;
66739;SDS011;53653;52.188;8.602;2023-04-24T05:04:10;8.15;;;3.88;;
66739;SDS011;53653;52.188;8.602;2023-04-24T05:06:36;8.98;;;4.53;;
66739;SDS011;53653;52.188;8.602;2023-04-24T05:09:01;13.73;;;6.37;;
66739;SDS011;53653;52.188;8.602;2023-04-24T05:11:49;13.02;;;6.60;;
66739;SDS011;53653;52.188;8.602;2023-04-24T05:14:15;14.70;;;6.85;;
66739;SDS011;53653;52.188;8.602;2023-04-24T05:16:43;15.50;;;7.30;;
66739;SDS011;53653;52.188;8.602;2023-04-24T05:19:09;13.07;;;6.28;;
66739;SDS011;53653;52.188;8.602;2023-04-24T05:21:39;14.30;;;6.43;;
66739;SDS011;53653;52.188;8.602;2023-04-24T05:24:06;14.13;;;6.45;;
66739;SDS011;53653;52.188;8.602;2023-04-24T05:26:53;16.13;;;6.97;;
66739;SDS011;53653;52.188;8.602;2023-04-24T05:29:24;16.93;;;6.60;;
66739;SDS011;53653;52.188;8.602;2023-04-24T05:31:52;18.20;;;6.93;;
66739;SDS011;53653;52.188;8.602;2023-04-24T05:34:18;14.93;;;7.40;;
66739;SDS011;53653;52.188;8.602;2023-04-24T05:36:46;15.27;;;7.35;;
66739;SDS011;53653;52.188;8.602;2023-04-24T05:39:11;16.10;;;7.97;;
66739;SDS011;53653;52.188;8.602;2023-04-24T05:41:37;13.67;;;6.43;;
66739;SDS011;53653;52.188;8.602;2023-04-24T05:44:02;15.38;;;7.28;;
66739;SDS011;53653;52.188;8.602;2023-04-24T05:46:28;18.75;;;6.65;;
66739;SDS011;53653;52.188;8.602;2023-04-24T05:48:55;15.43;;;6.53;;
66739;SDS011;53653;52.188;8.602;2023-04-24T05:51:20;16.50;;;7.80;;
66739;SDS011;53653;52.188;8.602;2023-04-24T05:53:46;15.57;;;8.13;;
66739;SDS011;53653;52.188;8.602;2023-04-24T05:56:11;17.13;;;7.40;;
66739;SDS011;53653;52.188;8.602;2023-04-24T05:58:37;19.10;;;8.38;;
66739;SDS011;53653;52.188;8.602;2023-04-24T06:01:03;15.50;;;7.10;;
66739;SDS011;53653;52.188;8.602;2023-04-24T06:03:29;18.33;;;8.50;;
66739;SDS011;53653;52.188;8.602;2023-04-24T06:05:55;17.97;;;8.10;;
66739;SDS011;53653;52.188;8.602;2023-04-24T06:08:21;19.42;;;8.38;;
66739;SDS011;53653;52.188;8.602;2023-04-24T06:10:48;16.88;;;7.95;;
66739;SDS011;53653;52.188;8.602;2023-04-24T06:13:15;15.55;;;8.30;;
66739;SDS011;53653;52.188;8.602;2023-04-24T06:15:50;15.95;;;7.93;;
66739;SDS011;53653;52.188;8.602;2023-04-24T06:18:21;17.27;;;8.10;;
66739;SDS011;53653;52.188;8.602;2023-04-24T06:20:47;16.48;;;8.13;;
66739;SDS011;53653;52.188;8.602;2023-04-24T06:23:13;18.10;;;8.55;;
66739;SDS011;53653;52.188;8.602;2023-04-24T06:25:38;18.40;;;8.50;;
66739;SDS011;53653;52.188;8.602;2023-04-24T06:28:04;18.47;;;8.40;;
66739;SDS011;53653;52.188;8.602;2023-04-24T06:30:30;17.55;;;8.88;;
66739;SDS011;53653;52.188;8.602;2023-04-24T06:32:55;18.00;;;8.27;;
66739;SDS011;53653;52.188;8.602;2023-04-24T06:35:21;17.60;;;8.60;;
66739;SDS011;53653;52.188;8.602;2023-04-24T06:37:46;20.57;;;9.20;;
66739;SDS011;53653;52.188;8.602;2023-04-24T06:40:12;22.42;;;8.68;;
66739;SDS011;53653;52.188;8.602;2023-04-24T06:42:37;16.70;;;8.73;;
66739;SDS011;53653;52.188;8.602;2023-04-24T06:45:07;16.58;;;8.60;;
66739;SDS011;53653;52.188;8.602;2023-04-24T06:47:32;19.98;;;9.23;;
66739;SDS011;53653;52.188;8.602;2023-04-24T06:49:58;18.93;;;8.27;;
66739;SDS011;53653;52.188;8.602;2023-04-24T06:52:24;17.10;;;8.63;;
66739;SDS011;53653;52.188;8.602;2023-04-24T06:54:49;23.42;;;9.48;;
66739;SDS011;53653;52.188;8.602;2023-04-24T06:57:15;16.97;;;8.53;;
66739;SDS011;53653;52.188;8.602;2023-04-24T06:59:43;18.75;;;9.35;;
66739;SDS011;53653;52.188;8.602;2023-04-24T07:02:08;16.47;;;7.87;;
66739;SDS011;53653;52.188;8.602;2023-04-24T07:04:34;21.48;;;9.80;;
66739;SDS011;53653;52.188;8.602;2023-04-24T07:07:00;20.80;;;9.63;;
66739;SDS011;53653;52.188;8.602;2023-04-24T07:09:26;17.50;;;9.05;;
66739;SDS011;53653;52.188;8.602;2023-04-24T07:11:52;19.98;;;8.95;;
66739;SDS011;53653;52.188;8.602;2023-04-24T07:14:19;15.97;;;7.77;;
66739;SDS011;53653;52.188;8.602;2023-04-24T07:16:45;20.65;;;8.90;;
66739;SDS011;53653;52.188;8.602;2023-04-24T07:19:12;21.70;;;10.25;;
66739;SDS011;53653;52.188;8.602;2023-04-24T07:21:38;19.27;;;9.30;;
66739;SDS011;53653;52.188;8.602;2023-04-24T07:24:04;17.83;;;9.30;;
66739;SDS011;53653;52.188;8.602;2023-04-24T07:26:29;19.08;;;9.10;;
66739;SDS011;53653;52.188;8.602;2023-04-24T07:28:56;22.40;;;10.30;;
66739;SDS011;53653;52.188;8.602;2023-04-24T07:31:21;21.00;;;9.32;;
66739;SDS011;53653;52.188;8.602;2023-04-24T07:33:47;20.97;;;9.47;;
66739;SDS011;53653;52.188;8.602;2023-04-24T07:36:13;19.17;;;10.23;;
66739;SDS011;53653;52.188;8.602;2023-04-24T07:38:44;18.92;;;8.65;;
66739;SDS011;53653;52.188;8.602;2023-04-24T07:41:11;21.10;;;9.98;;
66739;SDS011;53653;52.188;8.602;2023-04-24T07:43:40;17.60;;;8.37;;
66739;SDS011;53653;52.188;8.602;2023-04-24T07:46:06;18.42;;;8.98;;
66739;SDS011;53653;52.188;8.602;2023-04-24T07:48:33;17.60;;;9.32;;
66739;SDS011;53653;52.188;8.602;2023-04-24T07:50:59;17.70;;;8.48;;
66739;SDS011;53653;52.188;8.602;2023-04-24T07:53:25;19.93;;;9.63;;
66739;SDS011;53653;52.188;8.602;2023-04-24T07:55:50;18.95;;;9.93;;
66739;SDS011;53653;52.188;8.602;2023-04-24T07:58:16;19.37;;;9.27;;
66739;SDS011;53653;52.188;8.602;2023-04-24T08:00:42;17.77;;;8.40;;
66739;SDS011;53653;52.188;8.602;2023-04-24T08:03:07;17.43;;;8.13;;
66739;SDS011;53653;52.188;8.602;2023-04-24T08:05:33;16.83;;;8.63;;
66739;SDS011;53653;52.188;8.602;2023-04-24T08:07:58;17.42;;;7.95;;
66739;SDS011;53653;52.188;8.602;2023-04-24T08:10:24;14.83;;;7.47;;
66739;SDS011;53653;52.188;8.602;2023-04-24T08:12:50;14.75;;;6.90;;
66739;SDS011;53653;52.188;8.602;2023-04-24T08:15:16;15.60;;;8.05;;
66739;SDS011;53653;52.188;8.602;2023-04-24T08:17:42;18.02;;;8.05;;
66739;SDS011;53653;52.188;8.602;2023-04-24T08:20:08;12.27;;;6.30;;
66739;SDS011;53653;52.188;8.602;2023-04-24T08:22:39;14.73;;;7.32;;
66739;SDS011;53653;52.188;8.602;2023-04-24T08:25:05;16.20;;;7.78;;
66739;SDS011;53653;52.188;8.602;2023-04-24T08:27:31;13.48;;;6.38;;
66739;SDS011;53653;52.188;8.602;2023-04-24T08:29:57;13.23;;;6.70;;
66739;SDS011;53653;52.188;8.602;2023-04-24T08:32:24;13.77;;;6.45;;
66739;SDS011;53653;52.188;8.602;2023-04-24T08:34:49;13.05;;;5.80;;
66739;SDS011;53653;52.188;8.602;2023-04-24T08:37:17;12.07;;;6.10;;
66739;SDS011;53653;52.188;8.602;2023-04-24T08:39:43;11.90;;;6.10;;
66739;SDS011;53653;52.188;8.602;2023-04-24T08:42:09;10.50;;;5.77;;
66739;SDS011;53653;52.188;8.602;2023-04-24T08:44:36;12.32;;;6.35;;
66739;SDS011;53653;52.188;8.602;2023-04-24T08:47:02;11.00;;;5.22;;
66739;SDS011;53653;52.188;8.602;2023-04-24T08:49:28;10.17;;;5.40;;
66739;SDS011;53653;52.188;8.602;2023-04-24T08:51:54;9.23;;;4.97;;
66739;SDS011;53653;52.188;8.602;2023-04-24T08:54:20;9.88;;;4.90;;
66739;SDS011;53653;52.188;8.602;2023-04-24T08:56:47;8.65;;;4.32;;
66739;SDS011;53653;52.188;8.602;2023-04-24T08:59:17;9.93;;;4.78;;
66739;SDS011;53653;52.188;8.602;2023-04-24T09:01:44;8.90;;;4.30;;
66739;SDS011;53653;52.188;8.602;2023-04-24T09:04:10;9.73;;;4.60;;
66739;SDS011;53653;52.188;8.602;2023-04-24T09:06:39;7.82;;;4.22;;
66739;SDS011;53653;52.188;8.602;2023-04-24T09:09:05;8.23;;;4.72;;
66739;SDS011;53653;52.188;8.602;2023-04-24T09:11:31;8.03;;;4.37;;
66739;SDS011;53653;52.188;8.602;2023-04-24T09:13:59;8.43;;;3.67;;
66739;SDS011;53653;52.188;8.602;2023-04-24T09:16:26;10.32;;;4.20;;
66739;SDS011;53653;52.188;8.602;2023-04-24T09:18:52;8.95;;;4.40;;
66739;SDS011;53653;52.188;8.602;2023-04-24T09:21:20;8.48;;;4.47;;
66739;SDS011;53653;52.188;8.602;2023-04-24T09:23:47;8.77;;;3.77;;
66739;SDS011;53653;52.188;8.602;2023-04-24T09:26:23;8.13;;;3.78;;
66739;SDS011;53653;52.188;8.602;2023-04-24T09:28:49;8.25;;;3.70;;
66739;SDS011;53653;52.188;8.602;2023-04-24T09:31:17;6.63;;;3.28;;
66739;SDS011;53653;52.188;8.602;2023-04-24T09:33:59;9.07;;;4.03;;
66739;SDS011;53653;52.188;8.602;2023-04-24T09:36:32;9.32;;;4.00;;
66739;SDS011;53653;52.188;8.602;2023-04-24T09:39:12;7.53;;;3.78;;
66739;SDS011;53653;52.188;8.602;2023-04-24T09:44:14;6.80;;;3.28;;
66739;SDS011;53653;52.188;8.602;2023-04-24T09:46:48;6.30;;;3.20;;
66739;SDS011;53653;52.188;8.602;2023-04-24T09:49:16;8.07;;;3.03;;
66739;SDS011;53653;52.188;8.602;2023-04-24T09:51:48;6.88;;;3.17;;
66739;SDS011;53653;52.188;8.602;2023-04-24T09:54:17;6.17;;;2.90;;
66739;SDS011;53653;52.188;8.602;2023-04-24T09:56:46;6.10;;;3.10;;
66739;SDS011;53653;52.188;8.602;2023-04-24T09:59:13;6.45;;;3.08;;
66739;SDS011;53653;52.188;8.602;2023-04-24T10:01:40;5.47;;;2.40;;
66739;SDS011;53653;52.188;8.602;2023-04-24T10:06:47;7.53;;;2.78;;
66739;SDS011;53653;52.188;8.602;2023-04-24T10:09:18;6.95;;;3.28;;
66739;SDS011;53653;52.188;8.602;2023-04-24T10:11:48;6.32;;;2.90;;
66739;SDS011;53653;52.188;8.602;2023-04-24T10:14:16;6.05;;;2.78;;
66739;SDS011;53653;52.188;8.602;2023-04-24T10:16:43;6.53;;;2.60;;
66739;SDS011;53653;52.188;8.602;2023-04-24T10:19:12;5.97;;;2.28;;
66739;SDS011;53653;52.188;8.602;2023-04-24T10:21:39;6.13;;;2.50;;
66739;SDS011;53653;52.188;8.602;2023-04-24T10:24:10;8.25;;;3.10;;
66739;SDS011;53653;52.188;8.602;2023-04-24T10:26:40;7.75;;;3.25;;
66739;SDS011;53653;52.188;8.602;2023-04-24T10:29:06;6.83;;;3.30;;
66739;SDS011;53653;52.188;8.602;2023-04-24T10:31:37;7.32;;;3.88;;
66739;SDS011;53653;52.188;8.602;2023-04-24T10:34:04;6.78;;;3.80;;
66739;SDS011;53653;52.188;8.602;2023-04-24T10:36:31;7.90;;;4.32;;
66739;SDS011;53653;52.188;8.602;2023-04-24T10:38:58;8.15;;;4.22;;
66739;SDS011;53653;52.188;8.602;2023-04-24T10:41:26;8.43;;;4.40;;
66739;SDS011;53653;52.188;8.602;2023-04-24T10:44:07;9.65;;;4.97;;
66739;SDS011;53653;52.188;8.602;2023-04-24T10:46:34;10.23;;;4.95;;
66739;SDS011;53653;52.188;8.602;2023-04-24T10:49:04;9.43;;;4.75;;
66739;SDS011;53653;52.188;8.602;2023-04-24T10:51:47;9.33;;;4.90;;
66739;SDS011;53653;52.188;8.602;2023-04-24T10:54:26;10.18;;;4.72;;
66739;SDS011;53653;52.188;8.602;2023-04-24T10:57:25;8.63;;;4.75;;
66739;SDS011;53653;52.188;8.602;2023-04-24T10:59:45;9.77;;;4.50;;
66739;SDS011;53653;52.188;8.602;2023-04-24T11:02:17;8.80;;;4.72;;
66739;SDS011;53653;52.188;8.602;2023-04-24T11:04:43;8.80;;;5.10;;
66739;SDS011;53653;52.188;8.602;2023-04-24T11:07:10;9.20;;;5.25;;
66739;SDS011;53653;52.188;8.602;2023-04-24T11:09:36;8.30;;;4.90;;
66739;SDS011;53653;52.188;8.602;2023-04-24T11:12:08;8.40;;;4.88;;
66739;SDS011;53653;52.188;8.602;2023-04-24T11:17:31;9.90;;;5.20;;
66739;SDS011;53653;52.188;8.602;2023-04-24T11:20:05;7.97;;;4.80;;
66739;SDS011;53653;52.188;8.602;2023-04-24T11:22:32;8.27;;;4.45;;
66739;SDS011;53653;52.188;8.602;2023-04-24T11:25:00;8.63;;;4.78;;
66739;SDS011;53653;52.188;8.602;2023-04-24T11:27:31;8.68;;;4.40;;
66739;SDS011;53653;52.188;8.602;2023-04-24T11:32:50;9.10;;;4.80;;
66739;SDS011;53653;52.188;8.602;2023-04-24T11:35:16;9.55;;;4.75;;
66739;SDS011;53653;52.188;8.602;2023-04-24T11:37:46;8.40;;;4.22;;
66739;SDS011;53653;52.188;8.602;2023-04-24T11:40:17;8.65;;;4.18;;
66739;SDS011;53653;52.188;8.602;2023-04-24T11:42:49;8.37;;;3.67;;
66739;SDS011;53653;52.188;8.602;2023-04-24T11:47:43;7.03;;;3.38;;
66739;SDS011;53653;52.188;8.602;2023-04-24T11:50:11;9.32;;;3.10;;
66739;SDS011;53653;52.188;8.602;2023-04-24T11:52:41;5.78;;;2.60;;
66739;SDS011;53653;52.188;8.602;2023-04-24T11:55:22;7.70;;;2.20;;
66739;SDS011;53653;52.188;8.602;2023-04-24T11:57:52;5.43;;;2.42;;
66739;SDS011;53653;52.188;8.602;2023-04-24T12:00:22;6.78;;;2.38;;
66739;SDS011;53653;52.188;8.602;2023-04-24T12:03:03;5.65;;;2.10;;
66739;SDS011;53653;52.188;8.602;2023-04-24T12:05:30;7.07;;;2.30;;
66739;SDS011;53653;52.188;8.602;2023-04-24T12:07:56;4.40;;;1.47;;
66739;SDS011;53653;52.188;8.602;2023-04-24T12:10:22;4.73;;;1.47;;
66739;SDS011;53653;52.188;8.602;2023-04-24T12:12:49;6.97;;;1.90;;
66739;SDS011;53653;52.188;8.602;2023-04-24T12:15:16;3.70;;;1.10;;
66739;SDS011;53653;52.188;8.602;2023-04-24T12:17:43;4.40;;;1.45;;
66739;SDS011;53653;52.188;8.602;2023-04-24T12:20:09;5.03;;;1.30;;
66739;SDS011;53653;52.188;8.602;2023-04-24T12:22:48;4.55;;;1.55;;
66739;SDS011;53653;52.188;8.602;2023-04-24T12:25:22;4.83;;;1.60;;
66739;SDS011;53653;52.188;8.602;2023-04-24T12:27:53;6.88;;;1.77;;
66739;SDS011;53653;52.188;8.602;2023-04-24T12:30:20;5.97;;;2.00;;
66739;SDS011;53653;52.188;8.602;2023-04-24T12:32:47;4.80;;;1.60;;
66739;SDS011;53653;52.188;8.602;2023-04-24T12:35:18;6.85;;;2.13;;
66739;SDS011;53653;52.188;8.602;2023-04-24T12:37:45;5.30;;;2.20;;
66739;SDS011;53653;52.188;8.602;2023-04-24T12:40:11;5.93;;;2.10;;
66739;SDS011;53653;52.188;8.602;2023-04-24T12:42:42;5.83;;;1.90;;
66739;SDS011;53653;52.188;8.602;2023-04-24T12:45:12;6.32;;;2.67;;
66739;SDS011;53653;52.188;8.602;2023-04-24T12:47:39;7.18;;;2.75;;
66739;SDS011;53653;52.188;8.602;2023-04-24T12:50:07;6.75;;;2.72;;
66739;SDS011;53653;52.188;8.602;2023-04-24T12:52:35;7.78;;;2.55;;
66739;SDS011;53653;52.188;8.602;2023-04-24T12:55:02;9.67;;;3.20;;
66739;SDS011;53653;52.188;8.602;2023-04-24T12:57:28;8.20;;;3.25;;
66739;SDS011;53653;52.188;8.602;2023-04-24T12:59:55;8.25;;;3.45;;
66739;SDS011;53653;52.188;8.602;2023-04-24T13:02:25;10.45;;;4.20;;
66739;SDS011;53653;52.188;8.602;2023-04-24T13:04:54;11.35;;;4.28;;
66739;SDS011;53653;52.188;8.602;2023-04-24T13:07:20;9.70;;;4.70;;
66739;SDS011;53653;52.188;8.602;2023-04-24T13:09:47;10.35;;;4.05;;
66739;SDS011;53653;52.188;8.602;2023-04-24T13:12:14;12.27;;;5.05;;
66739;SDS011;53653;52.188;8.602;2023-04-24T13:14:40;9.70;;;3.17;;
66739;SDS011;53653;52.188;8.602;2023-04-24T13:17:06;7.77;;;3.00;;
66739;SDS011;53653;52.188;8.602;2023-04-24T13:19:39;8.80;;;4.00;;
66739;SDS011;53653;52.188;8.602;2023-04-24T13:22:05;8.93;;;3.65;;
66739;SDS011;53653;52.188;8.602;2023-04-24T13:24:31;9.43;;;3.40;;
66739;SDS011;53653;52.188;8.602;2023-04-24T13:26:57;7.90;;;3.33;;
66739;SDS011;53653;52.188;8.602;2023-04-24T13:29:23;14.63;;;3.80;;
66739;SDS011;53653;52.188;8.602;2023-04-24T13:31:52;10.10;;;3.67;;
66739;SDS011;53653;52.188;8.602;2023-04-24T13:34:25;8.60;;;3.10;;
66739;SDS011;53653;52.188;8.602;2023-04-24T13:36:55;10.80;;;3.50;;
66739;SDS011;53653;52.188;8.602;2023-04-24T13:39:22;11.15;;;3.95;;
66739;SDS011;53653;52.188;8.602;2023-04-24T13:41:48;9.93;;;3.53;;
66739;SDS011;53653;52.188;8.602;2023-04-24T13:44:14;11.57;;;3.87;;
66739;SDS011;53653;52.188;8.602;2023-04-24T13:46:44;8.68;;;3.45;;
66739;SDS011;53653;52.188;8.602;2023-04-24T13:49:12;10.27;;;3.70;;
66739;SDS011;53653;52.188;8.602;2023-04-24T13:51:38;8.07;;;3.67;;
66739;SDS011;53653;52.188;8.602;2023-04-24T13:54:05;12.50;;;4.40;;
66739;SDS011;53653;52.188;8.602;2023-04-24T13:56:31;9.27;;;4.05;;
66739;SDS011;53653;52.188;8.602;2023-04-24T13:58:56;10.37;;;4.00;;
66739;SDS011;53653;52.188;8.602;2023-04-24T14:01:22;10.52;;;3.88;;
66739;SDS011;53653;52.188;8.602;2023-04-24T14:03:51;9.03;;;4.47;;
66739;SDS011;53653;52.188;8.602;2023-04-24T14:06:18;10.15;;;4.00;;
66739;SDS011;53653;52.188;8.602;2023-04-24T14:08:43;10.32;;;4.30;;
66739;SDS011;53653;52.188;8.602;2023-04-24T14:11:09;10.17;;;4.30;;
66739;SDS011;53653;52.188;8.602;2023-04-24T14:13:35;12.93;;;4.03;;
66739;SDS011;53653;52.188;8.602;2023-04-24T14:16:02;10.47;;;4.33;;
66739;SDS011;53653;52.188;8.602;2023-04-24T14:18:29;9.90;;;4.05;;
66739;SDS011;53653;52.188;8.602;2023-04-24T14:20:54;13.75;;;4.53;;
66739;SDS011;53653;52.188;8.602;2023-04-24T14:23:20;13.03;;;4.20;;
66739;SDS011;53653;52.188;8.602;2023-04-24T14:25:45;12.70;;;5.07;;
66739;SDS011;53653;52.188;8.602;2023-04-24T14:28:11;12.02;;;4.45;;
66739;SDS011;53653;52.188;8.602;2023-04-24T14:30:37;13.55;;;4.93;;
66739;SDS011;53653;52.188;8.602;2023-04-24T14:33:03;13.47;;;4.93;;
66739;SDS011;53653;52.188;8.602;2023-04-24T14:35:29;10.52;;;4.50;;
66739;SDS011;53653;52.188;8.602;2023-04-24T14:37:56;12.30;;;4.43;;
66739;SDS011;53653;52.188;8.602;2023-04-24T14:40:22;15.63;;;5.32;;
66739;SDS011;53653;52.188;8.602;2023-04-24T14:42:47;14.57;;;5.20;;
66739;SDS011;53653;52.188;8.602;2023-04-24T14:45:13;11.83;;;4.80;;
66739;SDS011;53653;52.188;8.602;2023-04-24T14:47:38;15.20;;;5.60;;
66739;SDS011;53653;52.188;8.602;2023-04-24T14:50:04;14.90;;;5.75;;
66739;SDS011;53653;52.188;8.602;2023-04-24T14:52:30;12.43;;;4.73;;
66739;SDS011;53653;52.188;8.602;2023-04-24T14:54:56;15.75;;;5.15;;
66739;SDS011;53653;52.188;8.602;2023-04-24T14:57:22;12.60;;;4.87;;
66739;SDS011;53653;52.188;8.602;2023-04-24T14:59:48;12.57;;;4.70;;